sensor_id;sensor_type;location;lat;lon;timestamp;pressure;altitude;pressure_sealevel;temperature;humidity
20013;BME280;10167;42.852;23.042;2023-04-23T00:02:15;94832.03;;;7.13;100.00
20013;BME280;10167;42.852;23.042;2023-04-23T00:04:49;94826.84;;;7.07;100.00
20013;BME280;10167;42.852;23.042;2023-04-23T00:07:19;94837.78;;;7.04;100.00
20013;BME280;10167;42.852;23.042;2023-04-23T00:09:49;94837.50;;;7.12;100.00
20013;BME280;10167;42.852;23.042;2023-04-23T00:12:21;94833.28;;;7.11;100.00
20013;BME280;10167;42.852;23.042;2023-04-23T00:14:52;94831.00;;;7.14;100.00
20013;BME280;10167;42.852;23.042;2023-04-23T00:17:21;94837.50;;;7.12;100.00
20013;BME280;10167;42.852;23.042;2023-04-23T00:19:50;94836.50;;;7.13;100.00
20013;BME280;10167;42.852;23.042;2023-04-23T00:22:19;94833.28;;;7.11;100.00
20013;BME280;10167;42.852;23.042;2023-04-23T00:24:48;94829.47;;;7.07;100.00
20013;BME280;10167;42.852;23.042;2023-04-23T00:27:18;94832.78;;;7.20;100.00
20013;BME280;10167;42.852;23.042;2023-04-23T00:29:50;94833.16;;;7.24;100.00
20013;BME280;10167;42.852;23.042;2023-04-23T00:32:19;94835.34;;;7.27;100.00
20013;BME280;10167;42.852;23.042;2023-04-23T00:34:49;94828.84;;;7.29;100.00
20013;BME280;10167;42.852;23.042;2023-04-23T00:37:18;94838.41;;;7.24;100.00
20013;BME280;10167;42.852;23.042;2023-04-23T00:39:47;94842.13;;;7.16;100.00
20013;BME280;10167;42.852;23.042;2023-04-23T00:42:16;94831.88;;;7.08;100.00
20013;BME280;10167;42.852;23.042;2023-04-23T00:44:46;94836.47;;;6.95;100.00
20013;BME280;10167;42.852;23.042;2023-04-23T00:47:16;94837.09;;;6.90;100.00
20013;BME280;10167;42.852;23.042;2023-04-23T00:49:47;94838.59;;;6.79;100.00
20013;BME280;10167;42.852;23.042;2023-04-23T00:52:17;94838.94;;;6.65;100.00
20013;BME280;10167;42.852;23.042;2023-04-23T00:54:46;94840.41;;;6.54;100.00
20013;BME280;10167;42.852;23.042;2023-04-23T00:57:15;94837.00;;;6.47;100.00
20013;BME280;10167;42.852;23.042;2023-04-23T00:59:45;94841.31;;;6.41;100.00
20013;BME280;10167;42.852;23.042;2023-04-23T01:02:16;94830.00;;;6.34;100.00
20013;BME280;10167;42.852;23.042;2023-04-23T01:04:47;94833.50;;;6.28;100.00
20013;BME280;10167;42.852;23.042;2023-04-23T01:07:17;94834.13;;;6.24;100.00
20013;BME280;10167;42.852;23.042;2023-04-23T01:09:47;94834.97;;;6.17;100.00
20013;BME280;10167;42.852;23.042;2023-04-23T01:12:17;94836.19;;;6.15;100.00
20013;BME280;10167;42.852;23.042;2023-04-23T01:14:46;94834.22;;;6.04;100.00
20013;BME280;10167;42.852;23.042;2023-04-23T01:17:17;94838.66;;;6.03;100.00
20013;BME280;10167;42.852;23.042;2023-04-23T01:19:46;94842.53;;;6.01;100.00
20013;BME280;10167;42.852;23.042;2023-04-23T01:22:17;94837.47;;;5.99;100.00
20013;BME280;10167;42.852;23.042;2023-04-23T01:24:47;94834.69;;;5.94;100.00
20013;BME280;10167;42.852;23.042;2023-04-23T01:27:17;94830.25;;;5.88;100.00
20013;BME280;10167;42.852;23.042;2023-04-23T01:29:48;94835.50;;;5.88;100.00
20013;BME280;10167;42.852;23.042;2023-04-23T01:32:17;94837.47;;;5.99;100.00
20013;BME280;10167;42.852;23.042;2023-04-23T01:34:48;94840.69;;;6.01;100.00
20013;BME280;10167;42.852;23.042;2023-04-23T01:37:22;94839.47;;;6.04;100.00
20013;BME280;10167;42.852;23.042;2023-04-23T01:39:52;94841.91;;;6.05;100.00
20013;BME280;10167;42.852;23.042;2023-04-23T01:42:21;94843.88;;;6.10;100.00
20013;BME280;10167;42.852;23.042;2023-04-23T01:44:53;94840.03;;;6.19;100.00
20013;BME280;10167;42.852;23.042;2023-04-23T01:47:22;94852.16;;;6.13;100.00
20013;BME280;10167;42.852;23.042;2023-04-23T01:49:52;94849.53;;;6.13;100.00
20013;BME280;10167;42.852;23.042;2023-04-23T01:52:22;94849.78;;;6.05;100.00
20013;BME280;10167;42.852;23.042;2023-04-23T01:54:51;94840.09;;;6.06;100.00
20013;BME280;10167;42.852;23.042;2023-04-23T01:57:20;94846.16;;;6.06;100.00
20013;BME280;10167;42.852;23.042;2023-04-23T02:00:00;94843.31;;;6.08;100.00
20013;BME280;10167;42.852;23.042;2023-04-23T02:02:41;94845.78;;;5.96;100.00
20013;BME280;10167;42.852;23.042;2023-04-23T02:05:11;94851.47;;;5.93;100.00
20013;BME280;10167;42.852;23.042;2023-04-23T02:07:42;94848.44;;;5.96;100.00
20013;BME280;10167;42.852;23.042;2023-04-23T02:10:12;94851.63;;;5.98;100.00
20013;BME280;10167;42.852;23.042;2023-04-23T02:12:41;94847.63;;;5.89;100.00
20013;BME280;10167;42.852;23.042;2023-04-23T02:15:11;94847.22;;;5.86;100.00
20013;BME280;10167;42.852;23.042;2023-04-23T02:17:40;94843.78;;;5.85;100.00
20013;BME280;10167;42.852;23.042;2023-04-23T02:20:10;94847.81;;;5.88;100.00
20013;BME280;10167;42.852;23.042;2023-04-23T02:22:41;94844.78;;;5.91;100.00
20013;BME280;10167;42.852;23.042;2023-04-23T02:25:11;94843.78;;;5.92;100.00
20013;BME280;10167;42.852;23.042;2023-04-23T02:27:42;94850.84;;;5.98;100.00
20013;BME280;10167;42.852;23.042;2023-04-23T02:30:11;94848.78;;;6.00;100.00
20013;BME280;10167;42.852;23.042;2023-04-23T02:32:40;94849.94;;;6.17;100.00
20013;BME280;10167;42.852;23.042;2023-04-23T02:35:10;94845.22;;;6.26;100.00
20013;BME280;10167;42.852;23.042;2023-04-23T02:37:40;94849.06;;;6.30;100.00
20013;BME280;10167;42.852;23.042;2023-04-23T02:40:11;94847.44;;;6.29;100.00
20013;BME280;10167;42.852;23.042;2023-04-23T02:42:40;94848.25;;;6.29;100.00
20013;BME280;10167;42.852;23.042;2023-04-23T02:45:10;94845.03;;;6.27;100.00
20013;BME280;10167;42.852;23.042;2023-04-23T02:47:39;94845.47;;;6.17;100.00
20013;BME280;10167;42.852;23.042;2023-04-23T02:50:09;94848.94;;;6.11;100.00
20013;BME280;10167;42.852;23.042;2023-04-23T02:52:38;94852.00;;;6.08;100.00
20013;BME280;10167;42.852;23.042;2023-04-23T02:55:09;94851.41;;;6.00;100.00
20013;BME280;10167;42.852;23.042;2023-04-23T02:57:39;94847.84;;;5.81;100.00
20013;BME280;10167;42.852;23.042;2023-04-23T03:00:09;94845.25;;;5.74;100.00
20013;BME280;10167;42.852;23.042;2023-04-23T03:02:41;94850.91;;;5.65;100.00
20013;BME280;10167;42.852;23.042;2023-04-23T03:05:10;94854.41;;;5.52;100.00
20013;BME280;10167;42.852;23.042;2023-04-23T03:07:40;94857.63;;;5.47;100.00
20013;BME280;10167;42.852;23.042;2023-04-23T03:10:11;94852.38;;;5.47;100.00
20013;BME280;10167;42.852;23.042;2023-04-23T03:12:41;94859.25;;;5.42;100.00
20013;BME280;10167;42.852;23.042;2023-04-23T03:15:11;94859.31;;;5.29;100.00
20013;BME280;10167;42.852;23.042;2023-04-23T03:17:40;94857.50;;;5.29;100.00
20013;BME280;10167;42.852;23.042;2023-04-23T03:20:10;94856.84;;;5.34;100.00
20013;BME280;10167;42.852;23.042;2023-04-23T03:22:40;94857.88;;;5.39;100.00
20013;BME280;10167;42.852;23.042;2023-04-23T03:25:10;94855.84;;;5.41;100.00
20013;BME280;10167;42.852;23.042;2023-04-23T03:27:40;94859.06;;;5.43;100.00
20013;BME280;10167;42.852;23.042;2023-04-23T03:30:10;94860.28;;;5.47;100.00
20013;BME280;10167;42.852;23.042;2023-04-23T03:32:40;94858.84;;;5.52;100.00
20013;BME280;10167;42.852;23.042;2023-04-23T03:35:10;94851.34;;;5.55;100.00
20013;BME280;10167;42.852;23.042;2023-04-23T03:37:43;94855.38;;;5.58;100.00
20013;BME280;10167;42.852;23.042;2023-04-23T03:40:15;94857.63;;;5.61;100.00
20013;BME280;10167;42.852;23.042;2023-04-23T03:42:47;94860.66;;;5.51;100.00
20013;BME280;10167;42.852;23.042;2023-04-23T03:45:21;94854.41;;;5.52;100.00
20013;BME280;10167;42.852;23.042;2023-04-23T03:47:50;94859.66;;;5.45;100.00
20013;BME280;10167;42.852;23.042;2023-04-23T03:50:20;94865.13;;;5.51;100.00
20013;BME280;10167;42.852;23.042;2023-04-23T03:53:05;94865.94;;;5.51;100.00
20013;BME280;10167;42.852;23.042;2023-04-23T03:56:12;94863.72;;;5.41;100.00
20013;BME280;10167;42.852;23.042;2023-04-23T03:58:50;94866.34;;;5.41;100.00
20013;BME280;10167;42.852;23.042;2023-04-23T04:01:19;94863.53;;;5.36;100.00
20013;BME280;10167;42.852;23.042;2023-04-23T04:03:50;94861.88;;;5.42;100.00
20013;BME280;10167;42.852;23.042;2023-04-23T04:06:19;94863.66;;;5.55;100.00
20013;BME280;10167;42.852;23.042;2023-04-23T04:08:48;94861.22;;;5.66;100.00
20013;BME280;10167;42.852;23.042;2023-04-23T04:11:19;94870.50;;;5.75;100.00
20013;BME280;10167;42.852;23.042;2023-04-23T04:13:48;94874.91;;;5.81;100.00
20013;BME280;10167;42.852;23.042;2023-04-23T04:16:17;94875.13;;;5.87;100.00
20013;BME280;10167;42.852;23.042;2023-04-23T04:18:47;94875.50;;;5.97;100.00
20013;BME280;10167;42.852;23.042;2023-04-23T04:21:16;94879.91;;;6.03;100.00
20013;BME280;10167;42.852;23.042;2023-04-23T04:23:46;94890.94;;;6.25;100.00
20013;BME280;10167;42.852;23.042;2023-04-23T04:26:15;94888.91;;;6.27;100.00
20013;BME280;10167;42.852;23.042;2023-04-23T04:28:47;94891.34;;;6.28;100.00
20013;BME280;10167;42.852;23.042;2023-04-23T04:31:16;94891.28;;;6.35;100.00
20013;BME280;10167;42.852;23.042;2023-04-23T04:33:47;94904.25;;;6.36;100.00
20013;BME280;10167;42.852;23.042;2023-04-23T04:36:16;94901.25;;;6.26;100.00
20013;BME280;10167;42.852;23.042;2023-04-23T04:38:45;94903.28;;;6.31;100.00
20013;BME280;10167;42.852;23.042;2023-04-23T04:41:14;94905.03;;;6.37;100.00
20013;BME280;10167;42.852;23.042;2023-04-23T04:43:48;94904.19;;;6.49;100.00
20013;BME280;10167;42.852;23.042;2023-04-23T04:46:17;94907.41;;;6.51;100.00
20013;BME280;10167;42.852;23.042;2023-04-23T04:48:47;94914.63;;;6.63;100.00
20013;BME280;10167;42.852;23.042;2023-04-23T04:51:16;94918.00;;;6.70;100.00
20013;BME280;10167;42.852;23.042;2023-04-23T04:53:46;94917.19;;;6.76;100.00
20013;BME280;10167;42.852;23.042;2023-04-23T04:56:15;94918.69;;;6.90;100.00
20013;BME280;10167;42.852;23.042;2023-04-23T04:58:44;94915.00;;;6.98;100.00
20013;BME280;10167;42.852;23.042;2023-04-23T05:01:15;94912.72;;;7.01;100.00
20013;BME280;10167;42.852;23.042;2023-04-23T05:03:45;94911.09;;;7.07;100.00
20013;BME280;10167;42.852;23.042;2023-04-23T05:06:14;94919.94;;;7.12;100.00
20013;BME280;10167;42.852;23.042;2023-04-23T05:08:43;94919.53;;;7.15;100.00
20013;BME280;10167;42.852;23.042;2023-04-23T05:11:15;94921.06;;;7.23;100.00
20013;BME280;10167;42.852;23.042;2023-04-23T05:13:44;94922.44;;;7.32;100.00
20013;BME280;10167;42.852;23.042;2023-04-23T05:16:15;94919.84;;;7.50;100.00
20013;BME280;10167;42.852;23.042;2023-04-23T05:18:44;94916.50;;;7.61;100.00
20013;BME280;10167;42.852;23.042;2023-04-23T05:21:14;94928.31;;;7.77;100.00
20013;BME280;10167;42.852;23.042;2023-04-23T05:23:43;94931.59;;;7.91;100.00
20013;BME280;10167;42.852;23.042;2023-04-23T05:26:12;94927.06;;;7.98;100.00
20013;BME280;10167;42.852;23.042;2023-04-23T05:28:41;94926.56;;;8.08;100.00
20013;BME280;10167;42.852;23.042;2023-04-23T05:31:10;94927.75;;;8.12;100.00
20013;BME280;10167;42.852;23.042;2023-04-23T05:33:41;94930.19;;;8.25;100.00
20013;BME280;10167;42.852;23.042;2023-04-23T05:36:17;94929.72;;;8.34;100.00
20013;BME280;10167;42.852;23.042;2023-04-23T05:38:46;94932.44;;;8.58;100.00
20013;BME280;10167;42.852;23.042;2023-04-23T05:41:15;94937.94;;;8.74;100.00
20013;BME280;10167;42.852;23.042;2023-04-23T05:43:44;94937.66;;;8.94;100.00
20013;BME280;10167;42.852;23.042;2023-04-23T05:46:13;94937.00;;;9.10;100.00
20013;BME280;10167;42.852;23.042;2023-04-23T05:48:44;94941.09;;;9.36;100.00
20013;BME280;10167;42.852;23.042;2023-04-23T05:51:13;94938.94;;;9.57;100.00
20013;BME280;10167;42.852;23.042;2023-04-23T05:53:42;94944.69;;;9.77;100.00
20013;BME280;10167;42.852;23.042;2023-04-23T05:56:11;94953.41;;;10.01;100.00
20013;BME280;10167;42.852;23.042;2023-04-23T05:58:40;94945.94;;;10.21;100.00
20013;BME280;10167;42.852;23.042;2023-04-23T06:01:09;94944.97;;;10.39;100.00
20013;BME280;10167;42.852;23.042;2023-04-23T06:03:39;94943.72;;;10.30;100.00
20013;BME280;10167;42.852;23.042;2023-04-23T06:06:13;94941.19;;;10.35;100.00
20013;BME280;10167;42.852;23.042;2023-04-23T06:08:43;94944.94;;;10.50;100.00
20013;BME280;10167;42.852;23.042;2023-04-23T06:11:12;94944.88;;;10.74;100.00
20013;BME280;10167;42.852;23.042;2023-04-23T06:13:41;94942.94;;;10.98;100.00
20013;BME280;10167;42.852;23.042;2023-04-23T06:16:10;94941.13;;;11.15;100.00
20013;BME280;10167;42.852;23.042;2023-04-23T06:18:40;94947.56;;;11.36;100.00
20013;BME280;10167;42.852;23.042;2023-04-23T06:21:09;94952.16;;;11.57;100.00
20013;BME280;10167;42.852;23.042;2023-04-23T06:23:40;94954.59;;;11.75;100.00
20013;BME280;10167;42.852;23.042;2023-04-23T06:26:09;94949.34;;;11.97;100.00
20013;BME280;10167;42.852;23.042;2023-04-23T06:28:40;94948.19;;;12.10;100.00
20013;BME280;10167;42.852;23.042;2023-04-23T06:31:31;94939.94;;;12.06;100.00
20013;BME280;10167;42.852;23.042;2023-04-23T06:34:00;94946.09;;;12.28;100.00
20013;BME280;10167;42.852;23.042;2023-04-23T06:36:30;94939.84;;;12.40;100.00
20013;BME280;10167;42.852;23.042;2023-04-23T06:39:01;94946.22;;;12.60;100.00
20013;BME280;10167;42.852;23.042;2023-04-23T06:41:30;94955.59;;;12.68;100.00
20013;BME280;10167;42.852;23.042;2023-04-23T06:44:11;94946.75;;;12.84;100.00
20013;BME280;10167;42.852;23.042;2023-04-23T06:46:47;94953.53;;;12.97;100.00
20013;BME280;10167;42.852;23.042;2023-04-23T06:49:17;94950.47;;;13.10;100.00
20013;BME280;10167;42.852;23.042;2023-04-23T06:51:46;94945.59;;;13.02;100.00
20013;BME280;10167;42.852;23.042;2023-04-23T06:54:17;94947.13;;;12.93;100.00
20013;BME280;10167;42.852;23.042;2023-04-23T06:56:46;94942.75;;;12.82;100.00
20013;BME280;10167;42.852;23.042;2023-04-23T06:59:15;94939.41;;;12.69;100.00
20013;BME280;10167;42.852;23.042;2023-04-23T07:01:50;94937.91;;;12.79;100.00
20013;BME280;10167;42.852;23.042;2023-04-23T07:04:19;94944.63;;;13.08;100.00
20013;BME280;10167;42.852;23.042;2023-04-23T07:06:48;94936.66;;;13.08;100.00
20013;BME280;10167;42.852;23.042;2023-04-23T07:09:19;94944.53;;;13.25;100.00
20013;BME280;10167;42.852;23.042;2023-04-23T07:11:48;94946.38;;;13.51;100.00
20013;BME280;10167;42.852;23.042;2023-04-23T07:14:17;94946.03;;;13.74;100.00
20013;BME280;10167;42.852;23.042;2023-04-23T07:16:46;94950.94;;;13.88;100.00
20013;BME280;10167;42.852;23.042;2023-04-23T07:19:16;94945.00;;;13.80;100.00
20013;BME280;10167;42.852;23.042;2023-04-23T07:21:45;94939.06;;;14.05;100.00
20013;BME280;10167;42.852;23.042;2023-04-23T07:24:14;94944.03;;;14.39;100.00
20013;BME280;10167;42.852;23.042;2023-04-23T07:26:45;94945.59;;;14.35;100.00
20013;BME280;10167;42.852;23.042;2023-04-23T07:29:14;94939.34;;;14.56;100.00
20013;BME280;10167;42.852;23.042;2023-04-23T07:31:43;94942.34;;;14.65;100.00
20013;BME280;10167;42.852;23.042;2023-04-23T07:34:13;94941.44;;;14.44;100.00
20013;BME280;10167;42.852;23.042;2023-04-23T07:36:42;94935.75;;;14.87;100.00
20013;BME280;10167;42.852;23.042;2023-04-23T07:39:11;94935.78;;;15.08;100.00
20013;BME280;10167;42.852;23.042;2023-04-23T07:41:40;94931.56;;;15.27;100.00
20013;BME280;10167;42.852;23.042;2023-04-23T07:44:11;94940.09;;;15.24;100.00
20013;BME280;10167;42.852;23.042;2023-04-23T07:46:40;94945.19;;;15.41;100.00
20013;BME280;10167;42.852;23.042;2023-04-23T07:49:09;94941.25;;;15.69;100.00
20013;BME280;10167;42.852;23.042;2023-04-23T07:51:38;94934.56;;;15.61;100.00
20013;BME280;10167;42.852;23.042;2023-04-23T07:54:08;94935.06;;;15.93;100.00
20013;BME280;10167;42.852;23.042;2023-04-23T07:56:38;94938.84;;;15.77;100.00
20013;BME280;10167;42.852;23.042;2023-04-23T07:59:11;94937.97;;;15.36;100.00
20013;BME280;10167;42.852;23.042;2023-04-23T08:01:40;94942.53;;;15.46;100.00
20013;BME280;10167;42.852;23.042;2023-04-23T08:04:10;94943.09;;;15.58;100.00
20013;BME280;10167;42.852;23.042;2023-04-23T08:06:40;94936.97;;;15.78;100.00
20013;BME280;10167;42.852;23.042;2023-04-23T08:09:09;94940.41;;;15.93;100.00
20013;BME280;10167;42.852;23.042;2023-04-23T08:11:39;94938.03;;;16.02;100.00
20013;BME280;10167;42.852;23.042;2023-04-23T08:14:09;94940.69;;;16.02;100.00
20013;BME280;10167;42.852;23.042;2023-04-23T08:16:39;94933.97;;;16.15;100.00
20013;BME280;10167;42.852;23.042;2023-04-23T08:19:09;94922.66;;;16.58;100.00
20013;BME280;10167;42.852;23.042;2023-04-23T08:21:39;94937.03;;;16.73;100.00
20013;BME280;10167;42.852;23.042;2023-04-23T08:24:08;94931.97;;;16.76;100.00
20013;BME280;10167;42.852;23.042;2023-04-23T08:26:38;94926.59;;;16.76;100.00
20013;BME280;10167;42.852;23.042;2023-04-23T08:29:07;94914.78;;;16.87;100.00
20013;BME280;10167;42.852;23.042;2023-04-23T08:31:39;94920.63;;;16.99;100.00
20013;BME280;10167;42.852;23.042;2023-04-23T08:34:08;94922.88;;;17.26;100.00
20013;BME280;10167;42.852;23.042;2023-04-23T08:36:38;94911.41;;;17.55;100.00
20013;BME280;10167;42.852;23.042;2023-04-23T08:39:07;94902.59;;;17.54;100.00
20013;BME280;10167;42.852;23.042;2023-04-23T08:41:39;94924.00;;;17.54;100.00
20013;BME280;10167;42.852;23.042;2023-04-23T08:44:11;94911.38;;;17.26;100.00
20013;BME280;10167;42.852;23.042;2023-04-23T08:46:43;94910.16;;;17.47;100.00
20013;BME280;10167;42.852;23.042;2023-04-23T08:49:14;94910.28;;;17.61;100.00
20013;BME280;10167;42.852;23.042;2023-04-23T08:51:47;94910.53;;;17.69;100.00
20013;BME280;10167;42.852;23.042;2023-04-23T08:54:21;94903.06;;;17.95;100.00
20013;BME280;10167;42.852;23.042;2023-04-23T08:56:50;94907.31;;;18.01;100.00
20013;BME280;10167;42.852;23.042;2023-04-23T08:59:19;94909.66;;;17.79;100.00
20013;BME280;10167;42.852;23.042;2023-04-23T09:01:51;94911.50;;;18.12;100.00
20013;BME280;10167;42.852;23.042;2023-04-23T09:04:21;94910.88;;;17.92;100.00
20013;BME280;10167;42.852;23.042;2023-04-23T09:06:52;94903.97;;;18.14;100.00
20013;BME280;10167;42.852;23.042;2023-04-23T09:09:22;94904.19;;;18.42;100.00
20013;BME280;10167;42.852;23.042;2023-04-23T09:11:54;94892.09;;;18.73;100.00
20013;BME280;10167;42.852;23.042;2023-04-23T09:14:24;94899.13;;;18.88;100.00
20013;BME280;10167;42.852;23.042;2023-04-23T09:16:55;94898.56;;;19.10;96.91
20013;BME280;10167;42.852;23.042;2023-04-23T09:19:26;94891.94;;;18.83;95.02
20013;BME280;10167;42.852;23.042;2023-04-23T09:21:57;94887.03;;;18.43;96.33
20013;BME280;10167;42.852;23.042;2023-04-23T09:24:27;94881.78;;;18.57;96.24
20013;BME280;10167;42.852;23.042;2023-04-23T09:26:57;94877.19;;;18.62;98.93
20013;BME280;10167;42.852;23.042;2023-04-23T09:29:26;94883.81;;;18.70;98.12
20013;BME280;10167;42.852;23.042;2023-04-23T09:32:05;94881.34;;;18.73;97.39
20013;BME280;10167;42.852;23.042;2023-04-23T09:34:36;94871.38;;;19.16;97.97
20013;BME280;10167;42.852;23.042;2023-04-23T09:37:05;94871.97;;;19.65;97.39
20013;BME280;10167;42.852;23.042;2023-04-23T09:39:38;94873.22;;;19.72;94.56
20013;BME280;10167;42.852;23.042;2023-04-23T09:42:08;94869.34;;;19.78;93.12
20013;BME280;10167;42.852;23.042;2023-04-23T09:44:39;94861.22;;;20.11;89.97
20013;BME280;10167;42.852;23.042;2023-04-23T09:47:09;94849.25;;;20.49;89.66
20013;BME280;10167;42.852;23.042;2023-04-23T09:49:45;94858.56;;;20.65;86.72
20013;BME280;10167;42.852;23.042;2023-04-23T09:52:15;94844.56;;;20.41;83.56
20013;BME280;10167;42.852;23.042;2023-04-23T09:54:45;94848.28;;;20.13;84.64
20013;BME280;10167;42.852;23.042;2023-04-23T09:57:14;94849.31;;;20.44;80.18
20013;BME280;10167;42.852;23.042;2023-04-23T09:59:44;94839.22;;;20.77;83.12
20013;BME280;10167;42.852;23.042;2023-04-23T10:02:26;94840.13;;;20.86;84.33
20013;BME280;10167;42.852;23.042;2023-04-23T10:04:58;94845.63;;;20.67;80.57
20013;BME280;10167;42.852;23.042;2023-04-23T10:07:48;94836.59;;;20.63;80.17
20013;BME280;10167;42.852;23.042;2023-04-23T10:10:18;94822.22;;;21.04;80.52
20013;BME280;10167;42.852;23.042;2023-04-23T10:12:48;94815.72;;;20.83;79.48
20013;BME280;10167;42.852;23.042;2023-04-23T10:15:24;94820.84;;;21.07;78.77
20013;BME280;10167;42.852;23.042;2023-04-23T10:17:55;94807.75;;;21.14;75.43
20013;BME280;10167;42.852;23.042;2023-04-23T10:20:29;94814.47;;;21.38;75.33
20013;BME280;10167;42.852;23.042;2023-04-23T10:22:59;94817.75;;;21.58;71.83
20013;BME280;10167;42.852;23.042;2023-04-23T10:25:29;94813.69;;;21.69;71.06
20013;BME280;10167;42.852;23.042;2023-04-23T10:27:59;94810.94;;;21.60;68.72
20013;BME280;10167;42.852;23.042;2023-04-23T10:30:30;94798.06;;;21.80;73.26
20013;BME280;10167;42.852;23.042;2023-04-23T10:33:00;94795.06;;;21.81;67.04
20013;BME280;10167;42.852;23.042;2023-04-23T10:35:35;94794.91;;;22.08;65.82
20013;BME280;10167;42.852;23.042;2023-04-23T10:38:04;94782.38;;;22.61;62.79
20013;BME280;10167;42.852;23.042;2023-04-23T10:40:35;94779.63;;;22.43;63.41
20013;BME280;10167;42.852;23.042;2023-04-23T10:43:05;94774.06;;;22.49;63.47
20013;BME280;10167;42.852;23.042;2023-04-23T10:45:35;94776.13;;;22.34;57.60
20013;BME280;10167;42.852;23.042;2023-04-23T10:48:05;94782.94;;;22.32;55.48
20013;BME280;10167;42.852;23.042;2023-04-23T10:50:35;94763.94;;;22.45;55.58
20013;BME280;10167;42.852;23.042;2023-04-23T10:53:19;94770.03;;;22.86;56.70
20013;BME280;10167;42.852;23.042;2023-04-23T10:55:48;94761.97;;;22.29;54.00
20013;BME280;10167;42.852;23.042;2023-04-23T10:58:18;94754.78;;;22.16;58.14
20013;BME280;10167;42.852;23.042;2023-04-23T11:00:48;94752.00;;;21.67;54.45
20013;BME280;10167;42.852;23.042;2023-04-23T11:03:30;94755.38;;;21.73;53.09
20013;BME280;10167;42.852;23.042;2023-04-23T11:06:00;94748.56;;;21.45;56.64
20013;BME280;10167;42.852;23.042;2023-04-23T11:08:30;94750.13;;;21.68;58.27
20013;BME280;10167;42.852;23.042;2023-04-23T11:11:00;94746.91;;;21.88;54.86
20013;BME280;10167;42.852;23.042;2023-04-23T11:13:30;94741.06;;;21.95;56.40
20013;BME280;10167;42.852;23.042;2023-04-23T11:16:15;94741.19;;;22.29;57.47
20013;BME280;10167;42.852;23.042;2023-04-23T11:19:07;94735.78;;;22.29;53.85
20013;BME280;10167;42.852;23.042;2023-04-23T11:21:58;94742.22;;;22.02;52.00
20013;BME280;10167;42.852;23.042;2023-04-23T11:24:31;94744.25;;;22.54;48.19
20013;BME280;10167;42.852;23.042;2023-04-23T11:27:05;94743.97;;;22.72;45.38
20013;BME280;10167;42.852;23.042;2023-04-23T11:29:35;94746.06;;;23.10;46.05
20013;BME280;10167;42.852;23.042;2023-04-23T11:32:05;94742.25;;;22.94;42.74
20013;BME280;10167;42.852;23.042;2023-04-23T11:34:40;94750.00;;;23.30;40.98
20013;BME280;10167;42.852;23.042;2023-04-23T11:37:13;94745.38;;;23.56;38.45
20013;BME280;10167;42.852;23.042;2023-04-23T11:39:43;94751.91;;;23.46;42.02
20013;BME280;10167;42.852;23.042;2023-04-23T11:42:14;94746.84;;;23.19;39.62
20013;BME280;10167;42.852;23.042;2023-04-23T11:44:44;94744.72;;;23.59;41.21
20013;BME280;10167;42.852;23.042;2023-04-23T11:47:15;94738.34;;;23.72;40.58
20013;BME280;10167;42.852;23.042;2023-04-23T11:49:47;94741.66;;;23.78;38.97
20013;BME280;10167;42.852;23.042;2023-04-23T11:52:16;94745.66;;;23.80;37.56
20013;BME280;10167;42.852;23.042;2023-04-23T11:54:45;94741.38;;;23.62;36.28
20013;BME280;10167;42.852;23.042;2023-04-23T11:57:14;94740.66;;;24.38;35.90
20013;BME280;10167;42.852;23.042;2023-04-23T11:59:43;94741.00;;;24.57;36.05
20013;BME280;10167;42.852;23.042;2023-04-23T12:02:12;94732.94;;;24.48;34.52
20013;BME280;10167;42.852;23.042;2023-04-23T12:04:42;94733.03;;;24.31;33.47
20013;BME280;10167;42.852;23.042;2023-04-23T12:07:13;94732.25;;;23.93;34.32
20013;BME280;10167;42.852;23.042;2023-04-23T12:09:57;94730.44;;;23.59;34.17
20013;BME280;10167;42.852;23.042;2023-04-23T12:12:33;94730.47;;;23.33;35.23
20013;BME280;10167;42.852;23.042;2023-04-23T12:15:03;94714.91;;;23.04;35.78
20013;BME280;10167;42.852;23.042;2023-04-23T12:17:33;94703.50;;;22.90;39.25
20013;BME280;10167;42.852;23.042;2023-04-23T12:20:03;94709.06;;;23.02;36.98
20013;BME280;10167;42.852;23.042;2023-04-23T12:22:35;94702.06;;;23.01;35.74
20013;BME280;10167;42.852;23.042;2023-04-23T12:25:05;94697.84;;;23.93;36.03
20013;BME280;10167;42.852;23.042;2023-04-23T12:27:38;94699.78;;;24.72;34.86
20013;BME280;10167;42.852;23.042;2023-04-23T12:30:10;94696.03;;;25.06;31.03
20013;BME280;10167;42.852;23.042;2023-04-23T12:32:40;94699.53;;;26.21;29.89
20013;BME280;10167;42.852;23.042;2023-04-23T12:35:09;94698.41;;;26.59;29.23
20013;BME280;10167;42.852;23.042;2023-04-23T12:37:40;94691.34;;;26.94;28.94
20013;BME280;10167;42.852;23.042;2023-04-23T12:40:10;94694.06;;;26.94;28.40
20013;BME280;10167;42.852;23.042;2023-04-23T12:42:39;94695.94;;;27.06;26.79
20013;BME280;10167;42.852;23.042;2023-04-23T12:45:09;94686.22;;;27.21;29.02
20013;BME280;10167;42.852;23.042;2023-04-23T12:47:38;94684.88;;;27.86;28.38
20013;BME280;10167;42.852;23.042;2023-04-23T12:50:08;94678.56;;;27.54;29.79
20013;BME280;10167;42.852;23.042;2023-04-23T12:52:37;94676.66;;;27.39;30.76
20013;BME280;10167;42.852;23.042;2023-04-23T12:55:08;94672.53;;;26.49;32.91
20013;BME280;10167;42.852;23.042;2023-04-23T12:57:37;94666.44;;;26.40;32.80
20013;BME280;10167;42.852;23.042;2023-04-23T13:00:07;94665.88;;;26.34;31.50
20013;BME280;10167;42.852;23.042;2023-04-23T13:02:37;94664.28;;;26.33;33.74
20013;BME280;10167;42.852;23.042;2023-04-23T13:05:07;94672.38;;;26.58;31.08
20013;BME280;10167;42.852;23.042;2023-04-23T13:07:36;94667.75;;;25.85;31.42